Hauptseite
METAR-TAF:

METAR-TAF

Flughäfen :

Militärflugplatz Châteaudun

Châteaudun, Frankreich

Breite: 48-03N, Länge: 001-23E, Höhe: 134 m

Beobachtung

Neuester Wetterbericht von vor 27 Minuten, um 13:00 UTC
Wind 7 kt aus West, variierte zwischen Südwest und Nordwest
Temperatur 25°C
Luftfeuchtigkeit 50%
Luftdruck 1018 hPa
Sichtweite 10 km oder mehr
Leicht bewölkt in der Höhe von 4600 ft
Durchbrochene Bewölkung in der Höhe von 6800 ft
Geschlossene Wolkendecke in der Höhe von 8000 ft

METAR: LFOC 171300Z AUTO 26007KT 220V310 9999 FEW046 BKN068 OVC080 25/14 Q1018 NOSIG

Zeit: 15:27 (13:27 UTC)

Prognose

Neuester Wetterbericht von vor 5 Stunden und 27 Minuten, um 08:00 UTC
Gültige Prognose vom 17 um 09 UTC bis 18 um 09 UTC
Wind 5 kt aus Nord
Sichtweite 10 km oder mehr
keine Wolken unter 1500 m und keine Kumulonimbus oder Gewitterwolken

TAF: LFOC 170800Z 1709/1809 35005KT CAVOK

Wetterbeobachtungen und Prognosen von mehr als 4000 Flughäfen (METAR und TAF Bericht).

Die verfügbaren Stationen werden durch gelbe und rote Markierungen auf der Karte dargestellt.

Führen Sie die Maus auf sie, um den Namen der Station zu sehen.

Darauf klicken, um die Beobachtung von Wetterbeobachtungen und Prognosen zu sehen.

Um die Karte zu ändern : klicken Sie auf den grünen Tasten mit einem schwarzen Kreuz Zum Vergrößern, auf den grünen Button mit einem Gedankenstrich zu verkleinern, oder auf die grünen Pfeile für benachbarte Karten.


METAR-TAF: